sensor_id;sensor_type;location;lat;lon;timestamp;temperature;humidity
64561;DHT22;50960;46.838;16.838;2023-07-30T00:00:01;21.10;99.20
64561;DHT22;50960;46.838;16.838;2023-07-30T00:02:28;21.10;99.40
64561;DHT22;50960;46.838;16.838;2023-07-30T00:04:54;21.00;98.90
64561;DHT22;50960;46.838;16.838;2023-07-30T00:07:20;21.00;99.10
64561;DHT22;50960;46.838;16.838;2023-07-30T00:09:47;21.00;98.90
64561;DHT22;50960;46.838;16.838;2023-07-30T00:12:13;21.00;99.10
64561;DHT22;50960;46.838;16.838;2023-07-30T00:14:39;20.80;99.60
64561;DHT22;50960;46.838;16.838;2023-07-30T00:17:06;20.80;99.90
64561;DHT22;50960;46.838;16.838;2023-07-30T00:19:32;20.80;99.90
64561;DHT22;50960;46.838;16.838;2023-07-30T00:21:59;20.80;99.90
64561;DHT22;50960;46.838;16.838;2023-07-30T00:24:25;20.80;99.90
64561;DHT22;50960;46.838;16.838;2023-07-30T00:26:51;20.60;99.90
64561;DHT22;50960;46.838;16.838;2023-07-30T00:29:18;20.60;99.90
64561;DHT22;50960;46.838;16.838;2023-07-30T00:31:45;20.60;99.90
64561;DHT22;50960;46.838;16.838;2023-07-30T00:34:11;20.60;99.90
64561;DHT22;50960;46.838;16.838;2023-07-30T00:36:38;20.60;99.90
64561;DHT22;50960;46.838;16.838;2023-07-30T00:39:04;20.60;99.90
64561;DHT22;50960;46.838;16.838;2023-07-30T00:41:31;20.50;99.90
64561;DHT22;50960;46.838;16.838;2023-07-30T00:43:58;20.60;99.90
64561;DHT22;50960;46.838;16.838;2023-07-30T00:46:24;20.60;99.90
64561;DHT22;50960;46.838;16.838;2023-07-30T00:48:52;20.60;99.90
64561;DHT22;50960;46.838;16.838;2023-07-30T00:51:19;20.50;99.90
64561;DHT22;50960;46.838;16.838;2023-07-30T00:53:46;20.40;99.90
64561;DHT22;50960;46.838;16.838;2023-07-30T00:56:12;20.50;99.90
64561;DHT22;50960;46.838;16.838;2023-07-30T00:58:40;20.50;99.90
64561;DHT22;50960;46.838;16.838;2023-07-30T01:01:07;20.50;99.90
64561;DHT22;50960;46.838;16.838;2023-07-30T01:03:33;20.50;99.90
64561;DHT22;50960;46.838;16.838;2023-07-30T01:06:00;20.40;99.90
64561;DHT22;50960;46.838;16.838;2023-07-30T01:08:27;20.40;99.90
64561;DHT22;50960;46.838;16.838;2023-07-30T01:10:53;20.50;99.90
64561;DHT22;50960;46.838;16.838;2023-07-30T01:13:20;20.50;99.90
64561;DHT22;50960;46.838;16.838;2023-07-30T01:15:47;20.50;99.90
64561;DHT22;50960;46.838;16.838;2023-07-30T01:18:13;20.50;99.90
64561;DHT22;50960;46.838;16.838;2023-07-30T01:20:40;20.30;99.90
64561;DHT22;50960;46.838;16.838;2023-07-30T01:23:06;20.30;99.90
64561;DHT22;50960;46.838;16.838;2023-07-30T01:25:36;20.20;99.90
64561;DHT22;50960;46.838;16.838;2023-07-30T01:28:05;20.10;99.90
64561;DHT22;50960;46.838;16.838;2023-07-30T01:30:38;20.10;99.90
64561;DHT22;50960;46.838;16.838;2023-07-30T01:33:06;20.10;99.90
64561;DHT22;50960;46.838;16.838;2023-07-30T01:35:33;20.10;99.90
64561;DHT22;50960;46.838;16.838;2023-07-30T01:38:01;20.10;99.90
64561;DHT22;50960;46.838;16.838;2023-07-30T01:40:29;20.10;99.90
64561;DHT22;50960;46.838;16.838;2023-07-30T01:42:56;20.00;99.90
64561;DHT22;50960;46.838;16.838;2023-07-30T01:45:22;20.00;99.90
64561;DHT22;50960;46.838;16.838;2023-07-30T01:47:48;20.00;99.90
64561;DHT22;50960;46.838;16.838;2023-07-30T01:50:14;20.00;99.90
64561;DHT22;50960;46.838;16.838;2023-07-30T01:52:41;20.00;99.90
64561;DHT22;50960;46.838;16.838;2023-07-30T01:55:07;20.00;99.90
64561;DHT22;50960;46.838;16.838;2023-07-30T01:57:34;20.00;99.90
64561;DHT22;50960;46.838;16.838;2023-07-30T02:00:00;20.00;99.90
64561;DHT22;50960;46.838;16.838;2023-07-30T02:02:26;20.00;99.90
64561;DHT22;50960;46.838;16.838;2023-07-30T02:04:53;20.00;99.90
64561;DHT22;50960;46.838;16.838;2023-07-30T02:07:19;19.90;99.90
64561;DHT22;50960;46.838;16.838;2023-07-30T02:09:45;19.90;99.90
64561;DHT22;50960;46.838;16.838;2023-07-30T02:12:12;19.80;99.90
64561;DHT22;50960;46.838;16.838;2023-07-30T02:14:39;19.90;99.90
64561;DHT22;50960;46.838;16.838;2023-07-30T02:17:05;19.90;99.90
64561;DHT22;50960;46.838;16.838;2023-07-30T02:19:31;19.90;99.90
64561;DHT22;50960;46.838;16.838;2023-07-30T02:21:58;19.90;99.90
64561;DHT22;50960;46.838;16.838;2023-07-30T02:24:24;19.90;99.90
64561;DHT22;50960;46.838;16.838;2023-07-30T02:26:50;19.90;99.90
64561;DHT22;50960;46.838;16.838;2023-07-30T02:29:16;19.90;99.90
64561;DHT22;50960;46.838;16.838;2023-07-30T02:31:42;19.90;99.90
64561;DHT22;50960;46.838;16.838;2023-07-30T02:34:09;19.90;99.90
64561;DHT22;50960;46.838;16.838;2023-07-30T02:36:36;20.00;99.90
64561;DHT22;50960;46.838;16.838;2023-07-30T02:39:03;20.00;99.90
64561;DHT22;50960;46.838;16.838;2023-07-30T02:41:29;20.00;99.90
64561;DHT22;50960;46.838;16.838;2023-07-30T02:43:55;20.00;99.90
64561;DHT22;50960;46.838;16.838;2023-07-30T02:46:22;20.00;99.90
64561;DHT22;50960;46.838;16.838;2023-07-30T02:48:48;20.00;99.90
64561;DHT22;50960;46.838;16.838;2023-07-30T02:51:14;20.00;99.90
64561;DHT22;50960;46.838;16.838;2023-07-30T02:53:43;20.00;99.90
64561;DHT22;50960;46.838;16.838;2023-07-30T02:56:10;19.90;99.90
64561;DHT22;50960;46.838;16.838;2023-07-30T02:58:36;20.00;99.90
64561;DHT22;50960;46.838;16.838;2023-07-30T03:01:07;20.00;99.90
64561;DHT22;50960;46.838;16.838;2023-07-30T03:03:34;19.90;99.90
64561;DHT22;50960;46.838;16.838;2023-07-30T03:06:00;20.00;99.90
64561;DHT22;50960;46.838;16.838;2023-07-30T03:08:26;20.00;99.90
64561;DHT22;50960;46.838;16.838;2023-07-30T03:10:53;20.00;99.90
64561;DHT22;50960;46.838;16.838;2023-07-30T03:13:19;20.00;99.90
64561;DHT22;50960;46.838;16.838;2023-07-30T03:15:45;20.20;99.90
64561;DHT22;50960;46.838;16.838;2023-07-30T03:18:12;19.90;99.90
64561;DHT22;50960;46.838;16.838;2023-07-30T03:20:38;20.00;99.90
64561;DHT22;50960;46.838;16.838;2023-07-30T03:23:05;20.00;99.90
64561;DHT22;50960;46.838;16.838;2023-07-30T03:25:31;20.00;99.90
64561;DHT22;50960;46.838;16.838;2023-07-30T03:27:57;20.00;99.90
64561;DHT22;50960;46.838;16.838;2023-07-30T03:30:23;20.00;99.90
64561;DHT22;50960;46.838;16.838;2023-07-30T03:32:50;20.00;99.90
64561;DHT22;50960;46.838;16.838;2023-07-30T03:35:16;20.10;99.90
64561;DHT22;50960;46.838;16.838;2023-07-30T03:37:42;20.10;99.90
64561;DHT22;50960;46.838;16.838;2023-07-30T03:40:10;20.10;99.90
64561;DHT22;50960;46.838;16.838;2023-07-30T03:42:36;20.10;99.90
64561;DHT22;50960;46.838;16.838;2023-07-30T03:45:03;20.10;99.90
64561;DHT22;50960;46.838;16.838;2023-07-30T03:47:29;20.10;99.90
64561;DHT22;50960;46.838;16.838;2023-07-30T03:49:55;20.10;99.90
64561;DHT22;50960;46.838;16.838;2023-07-30T03:52:22;20.10;99.90
64561;DHT22;50960;46.838;16.838;2023-07-30T03:54:48;20.10;99.90
64561;DHT22;50960;46.838;16.838;2023-07-30T03:57:14;20.10;99.90
64561;DHT22;50960;46.838;16.838;2023-07-30T03:59:41;20.10;99.90
64561;DHT22;50960;46.838;16.838;2023-07-30T04:02:07;20.10;99.90
64561;DHT22;50960;46.838;16.838;2023-07-30T04:04:33;20.20;99.90
64561;DHT22;50960;46.838;16.838;2023-07-30T04:06:59;20.20;99.90
64561;DHT22;50960;46.838;16.838;2023-07-30T04:09:26;20.20;99.90
64561;DHT22;50960;46.838;16.838;2023-07-30T04:11:52;20.20;99.90
64561;DHT22;50960;46.838;16.838;2023-07-30T04:14:18;20.20;99.90
64561;DHT22;50960;46.838;16.838;2023-07-30T04:16:45;20.20;99.90
64561;DHT22;50960;46.838;16.838;2023-07-30T04:19:13;20.10;99.90
64561;DHT22;50960;46.838;16.838;2023-07-30T04:21:40;20.10;99.90
64561;DHT22;50960;46.838;16.838;2023-07-30T04:24:06;20.10;99.90
64561;DHT22;50960;46.838;16.838;2023-07-30T04:26:32;20.10;99.90
64561;DHT22;50960;46.838;16.838;2023-07-30T04:28:59;20.50;99.90
64561;DHT22;50960;46.838;16.838;2023-07-30T04:31:25;20.20;99.90
64561;DHT22;50960;46.838;16.838;2023-07-30T04:33:52;20.10;99.90
64561;DHT22;50960;46.838;16.838;2023-07-30T04:36:18;20.10;99.90
64561;DHT22;50960;46.838;16.838;2023-07-30T04:38:46;20.10;99.90
64561;DHT22;50960;46.838;16.838;2023-07-30T04:41:13;20.10;99.90
64561;DHT22;50960;46.838;16.838;2023-07-30T04:43:40;20.00;99.90
64561;DHT22;50960;46.838;16.838;2023-07-30T04:46:07;20.10;99.90
64561;DHT22;50960;46.838;16.838;2023-07-30T04:48:33;20.00;99.90
64561;DHT22;50960;46.838;16.838;2023-07-30T04:51:00;20.00;99.90
64561;DHT22;50960;46.838;16.838;2023-07-30T04:53:26;19.90;99.90
64561;DHT22;50960;46.838;16.838;2023-07-30T04:55:56;19.90;99.90
64561;DHT22;50960;46.838;16.838;2023-07-30T04:58:23;20.20;99.90
64561;DHT22;50960;46.838;16.838;2023-07-30T05:00:51;20.00;99.90
64561;DHT22;50960;46.838;16.838;2023-07-30T05:03:18;20.10;99.90
64561;DHT22;50960;46.838;16.838;2023-07-30T05:05:44;20.00;99.90
64561;DHT22;50960;46.838;16.838;2023-07-30T05:08:11;20.00;99.90
64561;DHT22;50960;46.838;16.838;2023-07-30T05:10:37;20.00;99.90
64561;DHT22;50960;46.838;16.838;2023-07-30T05:13:03;20.30;99.90
64561;DHT22;50960;46.838;16.838;2023-07-30T05:15:30;19.90;99.90
64561;DHT22;50960;46.838;16.838;2023-07-30T05:17:56;20.10;99.90
64561;DHT22;50960;46.838;16.838;2023-07-30T05:20:23;19.90;99.90
64561;DHT22;50960;46.838;16.838;2023-07-30T05:22:49;19.90;99.90
64561;DHT22;50960;46.838;16.838;2023-07-30T05:25:15;19.90;99.90
64561;DHT22;50960;46.838;16.838;2023-07-30T05:27:42;19.90;99.90
64561;DHT22;50960;46.838;16.838;2023-07-30T05:30:09;19.90;99.90
64561;DHT22;50960;46.838;16.838;2023-07-30T05:32:35;19.90;99.90
64561;DHT22;50960;46.838;16.838;2023-07-30T05:35:02;19.80;99.90
64561;DHT22;50960;46.838;16.838;2023-07-30T05:37:28;19.90;99.90
64561;DHT22;50960;46.838;16.838;2023-07-30T05:39:54;19.90;99.90
64561;DHT22;50960;46.838;16.838;2023-07-30T05:42:21;20.00;99.90
64561;DHT22;50960;46.838;16.838;2023-07-30T05:44:47;19.90;99.90
64561;DHT22;50960;46.838;16.838;2023-07-30T05:47:14;19.90;99.90
64561;DHT22;50960;46.838;16.838;2023-07-30T05:49:41;19.90;99.90
64561;DHT22;50960;46.838;16.838;2023-07-30T05:52:07;20.00;99.90
64561;DHT22;50960;46.838;16.838;2023-07-30T05:54:33;20.00;99.90
64561;DHT22;50960;46.838;16.838;2023-07-30T05:57:00;20.10;99.90
64561;DHT22;50960;46.838;16.838;2023-07-30T05:59:26;20.10;99.90
64561;DHT22;50960;46.838;16.838;2023-07-30T06:01:52;20.10;99.90
64561;DHT22;50960;46.838;16.838;2023-07-30T06:04:19;20.20;99.90
64561;DHT22;50960;46.838;16.838;2023-07-30T06:06:45;20.20;99.90
64561;DHT22;50960;46.838;16.838;2023-07-30T06:09:11;20.20;99.90
64561;DHT22;50960;46.838;16.838;2023-07-30T06:11:38;20.30;99.90
64561;DHT22;50960;46.838;16.838;2023-07-30T06:14:04;20.40;99.90
64561;DHT22;50960;46.838;16.838;2023-07-30T06:16:31;20.30;99.90
64561;DHT22;50960;46.838;16.838;2023-07-30T06:18:57;20.30;99.90
64561;DHT22;50960;46.838;16.838;2023-07-30T06:21:23;20.40;99.90
64561;DHT22;50960;46.838;16.838;2023-07-30T06:23:50;20.30;99.90
64561;DHT22;50960;46.838;16.838;2023-07-30T06:29:39;20.40;99.90
64561;DHT22;50960;46.838;16.838;2023-07-30T06:32:06;20.40;99.90
64561;DHT22;50960;46.838;16.838;2023-07-30T06:34:32;20.40;99.90
64561;DHT22;50960;46.838;16.838;2023-07-30T06:36:59;20.40;99.90
64561;DHT22;50960;46.838;16.838;2023-07-30T06:39:25;20.50;99.90
64561;DHT22;50960;46.838;16.838;2023-07-30T06:41:51;20.40;99.90
64561;DHT22;50960;46.838;16.838;2023-07-30T06:44:18;20.40;99.90
64561;DHT22;50960;46.838;16.838;2023-07-30T06:46:44;20.50;99.90
64561;DHT22;50960;46.838;16.838;2023-07-30T06:49:10;20.60;99.90
64561;DHT22;50960;46.838;16.838;2023-07-30T06:51:36;20.60;99.90
64561;DHT22;50960;46.838;16.838;2023-07-30T06:54:03;20.60;99.90
64561;DHT22;50960;46.838;16.838;2023-07-30T06:56:29;20.70;99.90
64561;DHT22;50960;46.838;16.838;2023-07-30T06:58:55;20.70;99.90
64561;DHT22;50960;46.838;16.838;2023-07-30T07:01:23;20.70;99.90
64561;DHT22;50960;46.838;16.838;2023-07-30T07:03:49;20.70;99.90
64561;DHT22;50960;46.838;16.838;2023-07-30T07:06:15;20.60;99.90
64561;DHT22;50960;46.838;16.838;2023-07-30T07:08:41;20.60;99.90
64561;DHT22;50960;46.838;16.838;2023-07-30T07:11:08;20.60;99.90
64561;DHT22;50960;46.838;16.838;2023-07-30T07:13:34;20.70;99.90
64561;DHT22;50960;46.838;16.838;2023-07-30T07:16:00;20.80;99.90
64561;DHT22;50960;46.838;16.838;2023-07-30T07:18:26;20.70;99.90
64561;DHT22;50960;46.838;16.838;2023-07-30T07:20:53;20.80;99.90
64561;DHT22;50960;46.838;16.838;2023-07-30T07:23:19;20.80;99.90
64561;DHT22;50960;46.838;16.838;2023-07-30T07:25:45;20.80;99.90
64561;DHT22;50960;46.838;16.838;2023-07-30T07:28:12;20.80;99.90
64561;DHT22;50960;46.838;16.838;2023-07-30T07:30:38;20.80;99.90
64561;DHT22;50960;46.838;16.838;2023-07-30T07:33:04;20.80;99.90
64561;DHT22;50960;46.838;16.838;2023-07-30T07:35:32;20.80;99.90
64561;DHT22;50960;46.838;16.838;2023-07-30T07:37:58;20.90;99.90
64561;DHT22;50960;46.838;16.838;2023-07-30T07:40:24;21.00;99.90
64561;DHT22;50960;46.838;16.838;2023-07-30T07:42:51;21.00;99.90
64561;DHT22;50960;46.838;16.838;2023-07-30T07:45:17;20.80;99.90
64561;DHT22;50960;46.838;16.838;2023-07-30T07:47:43;20.80;99.90
64561;DHT22;50960;46.838;16.838;2023-07-30T07:50:09;20.80;99.90
64561;DHT22;50960;46.838;16.838;2023-07-30T07:52:36;20.80;99.90
64561;DHT22;50960;46.838;16.838;2023-07-30T07:55:03;20.70;99.90
64561;DHT22;50960;46.838;16.838;2023-07-30T07:57:29;20.70;99.90
64561;DHT22;50960;46.838;16.838;2023-07-30T07:59:57;20.70;99.90
64561;DHT22;50960;46.838;16.838;2023-07-30T08:02:23;20.90;99.90
64561;DHT22;50960;46.838;16.838;2023-07-30T08:04:50;21.10;99.90
64561;DHT22;50960;46.838;16.838;2023-07-30T08:07:17;21.40;99.90
64561;DHT22;50960;46.838;16.838;2023-07-30T08:09:43;21.50;99.90
64561;DHT22;50960;46.838;16.838;2023-07-30T08:12:10;21.50;99.90
64561;DHT22;50960;46.838;16.838;2023-07-30T08:14:36;21.50;99.90
64561;DHT22;50960;46.838;16.838;2023-07-30T08:17:02;21.40;99.90
64561;DHT22;50960;46.838;16.838;2023-07-30T08:19:29;21.50;99.90
64561;DHT22;50960;46.838;16.838;2023-07-30T08:21:55;21.50;99.90
64561;DHT22;50960;46.838;16.838;2023-07-30T08:24:22;21.40;99.90
64561;DHT22;50960;46.838;16.838;2023-07-30T08:26:49;21.30;99.90
64561;DHT22;50960;46.838;16.838;2023-07-30T08:29:15;21.50;99.90
64561;DHT22;50960;46.838;16.838;2023-07-30T08:31:42;21.50;99.90
64561;DHT22;50960;46.838;16.838;2023-07-30T08:34:09;21.60;99.90
64561;DHT22;50960;46.838;16.838;2023-07-30T08:36:36;21.20;99.90
64561;DHT22;50960;46.838;16.838;2023-07-30T08:39:02;21.00;99.90
64561;DHT22;50960;46.838;16.838;2023-07-30T08:41:30;20.90;99.90
64561;DHT22;50960;46.838;16.838;2023-07-30T08:43:56;21.10;99.90
64561;DHT22;50960;46.838;16.838;2023-07-30T08:46:22;21.20;99.90
64561;DHT22;50960;46.838;16.838;2023-07-30T08:48:49;21.20;99.90
64561;DHT22;50960;46.838;16.838;2023-07-30T08:51:15;21.50;99.90
64561;DHT22;50960;46.838;16.838;2023-07-30T08:53:43;21.80;99.90
64561;DHT22;50960;46.838;16.838;2023-07-30T08:56:10;22.10;99.90
64561;DHT22;50960;46.838;16.838;2023-07-30T08:58:36;22.50;99.90
64561;DHT22;50960;46.838;16.838;2023-07-30T09:01:11;22.80;99.90
64561;DHT22;50960;46.838;16.838;2023-07-30T09:03:39;22.90;99.90
64561;DHT22;50960;46.838;16.838;2023-07-30T09:06:06;23.20;99.90
64561;DHT22;50960;46.838;16.838;2023-07-30T09:08:32;23.40;99.90
64561;DHT22;50960;46.838;16.838;2023-07-30T09:11:12;23.30;99.90
64561;DHT22;50960;46.838;16.838;2023-07-30T09:13:40;23.20;99.90
64561;DHT22;50960;46.838;16.838;2023-07-30T09:16:11;23.10;99.90
64561;DHT22;50960;46.838;16.838;2023-07-30T09:18:45;23.30;99.90
64561;DHT22;50960;46.838;16.838;2023-07-30T09:21:13;23.40;99.90
64561;DHT22;50960;46.838;16.838;2023-07-30T09:23:43;23.80;99.90
64561;DHT22;50960;46.838;16.838;2023-07-30T09:26:10;23.80;99.90
64561;DHT22;50960;46.838;16.838;2023-07-30T09:28:36;24.40;99.90
64561;DHT22;50960;46.838;16.838;2023-07-30T09:31:04;24.90;99.90
64561;DHT22;50960;46.838;16.838;2023-07-30T09:33:34;24.90;99.90
64561;DHT22;50960;46.838;16.838;2023-07-30T09:36:04;25.20;98.60
64561;DHT22;50960;46.838;16.838;2023-07-30T09:38:41;25.30;98.90
64561;DHT22;50960;46.838;16.838;2023-07-30T09:41:08;25.50;96.90
64561;DHT22;50960;46.838;16.838;2023-07-30T09:43:35;25.30;97.40
64561;DHT22;50960;46.838;16.838;2023-07-30T09:46:06;25.40;96.50
64561;DHT22;50960;46.838;16.838;2023-07-30T09:48:34;25.40;95.90
64561;DHT22;50960;46.838;16.838;2023-07-30T09:51:04;25.40;96.30
64561;DHT22;50960;46.838;16.838;2023-07-30T09:53:32;25.40;96.90
64561;DHT22;50960;46.838;16.838;2023-07-30T09:56:03;25.80;96.90
64561;DHT22;50960;46.838;16.838;2023-07-30T09:58:30;25.80;95.80
64561;DHT22;50960;46.838;16.838;2023-07-30T10:01:00;26.00;94.60
64561;DHT22;50960;46.838;16.838;2023-07-30T10:03:27;26.30;95.60
64561;DHT22;50960;46.838;16.838;2023-07-30T10:06:04;26.60;95.30
64561;DHT22;50960;46.838;16.838;2023-07-30T10:08:34;26.10;94.50
64561;DHT22;50960;46.838;16.838;2023-07-30T10:11:03;26.50;94.10
64561;DHT22;50960;46.838;16.838;2023-07-30T10:13:31;26.60;93.50
64561;DHT22;50960;46.838;16.838;2023-07-30T10:15:57;27.10;90.90
64561;DHT22;50960;46.838;16.838;2023-07-30T10:18:57;26.80;85.80
64561;DHT22;50960;46.838;16.838;2023-07-30T10:21:26;27.20;90.70
64561;DHT22;50960;46.838;16.838;2023-07-30T10:24:03;27.30;90.90
64561;DHT22;50960;46.838;16.838;2023-07-30T10:26:34;27.00;90.50
64561;DHT22;50960;46.838;16.838;2023-07-30T10:29:12;26.80;90.80
64561;DHT22;50960;46.838;16.838;2023-07-30T10:31:58;26.30;90.70
64561;DHT22;50960;46.838;16.838;2023-07-30T10:34:46;26.30;90.50
64561;DHT22;50960;46.838;16.838;2023-07-30T10:37:20;26.40;90.80
64561;DHT22;50960;46.838;16.838;2023-07-30T10:39:50;26.30;90.60
64561;DHT22;50960;46.838;16.838;2023-07-30T10:42:16;26.20;88.60
64561;DHT22;50960;46.838;16.838;2023-07-30T10:44:44;26.30;88.40
64561;DHT22;50960;46.838;16.838;2023-07-30T10:47:11;26.90;84.00
64561;DHT22;50960;46.838;16.838;2023-07-30T10:49:38;27.70;76.70
64561;DHT22;50960;46.838;16.838;2023-07-30T10:52:06;27.50;71.70
64561;DHT22;50960;46.838;16.838;2023-07-30T10:54:34;26.80;77.80
64561;DHT22;50960;46.838;16.838;2023-07-30T10:57:04;27.00;83.70
64561;DHT22;50960;46.838;16.838;2023-07-30T10:59:37;27.40;73.30
64561;DHT22;50960;46.838;16.838;2023-07-30T11:02:04;27.70;69.00
64561;DHT22;50960;46.838;16.838;2023-07-30T11:04:33;27.40;73.30
64561;DHT22;50960;46.838;16.838;2023-07-30T11:07:00;28.00;67.50
64561;DHT22;50960;46.838;16.838;2023-07-30T11:09:27;27.80;65.40
64561;DHT22;50960;46.838;16.838;2023-07-30T11:11:55;28.20;65.70
64561;DHT22;50960;46.838;16.838;2023-07-30T11:14:23;27.40;66.40
64561;DHT22;50960;46.838;16.838;2023-07-30T11:16:54;27.40;71.20
64561;DHT22;50960;46.838;16.838;2023-07-30T11:19:21;26.90;72.20
64561;DHT22;50960;46.838;16.838;2023-07-30T11:21:49;27.00;65.20
64561;DHT22;50960;46.838;16.838;2023-07-30T11:24:16;26.60;71.30
64561;DHT22;50960;46.838;16.838;2023-07-30T11:26:43;26.30;73.90
64561;DHT22;50960;46.838;16.838;2023-07-30T11:29:19;26.40;78.80
64561;DHT22;50960;46.838;16.838;2023-07-30T11:31:47;26.60;78.00
64561;DHT22;50960;46.838;16.838;2023-07-30T11:34:14;26.70;87.00
64561;DHT22;50960;46.838;16.838;2023-07-30T11:36:42;26.80;83.60
64561;DHT22;50960;46.838;16.838;2023-07-30T11:39:09;26.30;83.10
64561;DHT22;50960;46.838;16.838;2023-07-30T11:41:36;26.30;85.10
64561;DHT22;50960;46.838;16.838;2023-07-30T11:44:03;26.70;86.40
64561;DHT22;50960;46.838;16.838;2023-07-30T11:46:30;26.90;81.40
64561;DHT22;50960;46.838;16.838;2023-07-30T11:49:15;27.00;80.00
64561;DHT22;50960;46.838;16.838;2023-07-30T11:51:47;27.00;69.50
64561;DHT22;50960;46.838;16.838;2023-07-30T11:54:22;26.70;69.00
64561;DHT22;50960;46.838;16.838;2023-07-30T11:56:55;26.70;67.20
64561;DHT22;50960;46.838;16.838;2023-07-30T11:59:22;26.80;70.90
64561;DHT22;50960;46.838;16.838;2023-07-30T12:01:48;27.10;73.20
64561;DHT22;50960;46.838;16.838;2023-07-30T12:04:15;27.30;70.40
64561;DHT22;50960;46.838;16.838;2023-07-30T12:09:22;27.50;66.00
64561;DHT22;50960;46.838;16.838;2023-07-30T12:14:22;28.20;65.20
64561;DHT22;50960;46.838;16.838;2023-07-30T12:16:51;28.20;62.20
64561;DHT22;50960;46.838;16.838;2023-07-30T12:19:17;28.20;62.50
64561;DHT22;50960;46.838;16.838;2023-07-30T12:21:44;28.30;63.80
64561;DHT22;50960;46.838;16.838;2023-07-30T12:24:10;27.80;61.20
64561;DHT22;50960;46.838;16.838;2023-07-30T12:26:36;27.90;62.30
64561;DHT22;50960;46.838;16.838;2023-07-30T12:29:02;28.70;61.70
64561;DHT22;50960;46.838;16.838;2023-07-30T12:31:30;29.00;59.60
64561;DHT22;50960;46.838;16.838;2023-07-30T12:33:56;29.30;59.60
64561;DHT22;50960;46.838;16.838;2023-07-30T12:36:23;29.60;58.40
64561;DHT22;50960;46.838;16.838;2023-07-30T12:38:49;29.90;56.80
64561;DHT22;50960;46.838;16.838;2023-07-30T12:41:18;29.40;52.80
64561;DHT22;50960;46.838;16.838;2023-07-30T12:43:46;29.20;59.10
64561;DHT22;50960;46.838;16.838;2023-07-30T12:46:12;29.60;57.60
64561;DHT22;50960;46.838;16.838;2023-07-30T12:48:38;30.60;57.30
64561;DHT22;50960;46.838;16.838;2023-07-30T12:51:06;31.30;55.10
64561;DHT22;50960;46.838;16.838;2023-07-30T12:53:32;31.50;53.10
64561;DHT22;50960;46.838;16.838;2023-07-30T12:55:58;32.00;54.40
64561;DHT22;50960;46.838;16.838;2023-07-30T12:58:25;32.20;52.10
64561;DHT22;50960;46.838;16.838;2023-07-30T13:00:51;32.70;52.60
64561;DHT22;50960;46.838;16.838;2023-07-30T13:03:17;33.60;51.00
64561;DHT22;50960;46.838;16.838;2023-07-30T13:05:43;34.70;51.20
64561;DHT22;50960;46.838;16.838;2023-07-30T13:08:10;34.80;48.90
64561;DHT22;50960;46.838;16.838;2023-07-30T13:10:36;34.00;48.70
64561;DHT22;50960;46.838;16.838;2023-07-30T13:13:02;33.50;47.80
64561;DHT22;50960;46.838;16.838;2023-07-30T13:15:32;35.30;48.30
64561;DHT22;50960;46.838;16.838;2023-07-30T13:17:58;36.10;46.70
64561;DHT22;50960;46.838;16.838;2023-07-30T13:20:24;36.20;46.50
64561;DHT22;50960;46.838;16.838;2023-07-30T13:22:51;36.20;47.20
64561;DHT22;50960;46.838;16.838;2023-07-30T13:25:18;36.30;46.90
64561;DHT22;50960;46.838;16.838;2023-07-30T13:27:44;35.70;37.00
64561;DHT22;50960;46.838;16.838;2023-07-30T13:32:37;33.60;71.50
64561;DHT22;50960;46.838;16.838;2023-07-30T13:35:03;35.20;72.00
64561;DHT22;50960;46.838;16.838;2023-07-30T13:37:30;36.10;70.50
64561;DHT22;50960;46.838;16.838;2023-07-30T13:39:57;36.30;72.70
64561;DHT22;50960;46.838;16.838;2023-07-30T13:42:23;35.60;73.00
64561;DHT22;50960;46.838;16.838;2023-07-30T13:44:56;36.40;68.40
64561;DHT22;50960;46.838;16.838;2023-07-30T13:47:22;39.90;74.80
64561;DHT22;50960;46.838;16.838;2023-07-30T13:49:49;42.60;67.50
64561;DHT22;50960;46.838;16.838;2023-07-30T13:52:17;45.80;58.10
64561;DHT22;50960;46.838;16.838;2023-07-30T13:54:43;49.60;54.70
64561;DHT22;50960;46.838;16.838;2023-07-30T13:57:11;50.50;54.60
64561;DHT22;50960;46.838;16.838;2023-07-30T13:59:37;52.60;54.70
64561;DHT22;50960;46.838;16.838;2023-07-30T14:04:32;48.50;22.70
64561;DHT22;50960;46.838;16.838;2023-07-30T14:06:59;45.60;26.50
64561;DHT22;50960;46.838;16.838;2023-07-30T14:09:25;48.10;27.00
64561;DHT22;50960;46.838;16.838;2023-07-30T14:11:58;43.00;27.50
64561;DHT22;50960;46.838;16.838;2023-07-30T14:14:25;42.80;29.90
64561;DHT22;50960;46.838;16.838;2023-07-30T14:16:53;50.40;27.30
64561;DHT22;50960;46.838;16.838;2023-07-30T14:19:20;55.70;24.80
64561;DHT22;50960;46.838;16.838;2023-07-30T14:21:46;54.50;24.50
64561;DHT22;50960;46.838;16.838;2023-07-30T14:24:13;57.30;23.70
64561;DHT22;50960;46.838;16.838;2023-07-30T14:26:39;53.80;23.00
64561;DHT22;50960;46.838;16.838;2023-07-30T14:29:05;54.30;23.90
64561;DHT22;50960;46.838;16.838;2023-07-30T14:31:32;55.90;25.50
64561;DHT22;50960;46.838;16.838;2023-07-30T14:33:58;57.10;26.10
64561;DHT22;50960;46.838;16.838;2023-07-30T14:36:24;59.80;23.90
64561;DHT22;50960;46.838;16.838;2023-07-30T14:38:50;60.40;23.70
64561;DHT22;50960;46.838;16.838;2023-07-30T14:41:17;58.50;20.20
64561;DHT22;50960;46.838;16.838;2023-07-30T14:43:43;52.60;21.00
64561;DHT22;50960;46.838;16.838;2023-07-30T14:46:09;54.70;23.70
64561;DHT22;50960;46.838;16.838;2023-07-30T14:48:40;58.70;21.80
64561;DHT22;50960;46.838;16.838;2023-07-30T14:51:07;57.10;20.50
64561;DHT22;50960;46.838;16.838;2023-07-30T14:53:33;55.30;24.20
64561;DHT22;50960;46.838;16.838;2023-07-30T14:56:00;52.40;34.20
64561;DHT22;50960;46.838;16.838;2023-07-30T14:58:27;51.60;28.60
64561;DHT22;50960;46.838;16.838;2023-07-30T15:00:54;55.40;25.80
64561;DHT22;50960;46.838;16.838;2023-07-30T15:03:20;55.60;29.10
64561;DHT22;50960;46.838;16.838;2023-07-30T15:05:46;55.80;31.60
64561;DHT22;50960;46.838;16.838;2023-07-30T15:08:13;57.90;31.10
64561;DHT22;50960;46.838;16.838;2023-07-30T15:10:39;58.20;18.60
64561;DHT22;50960;46.838;16.838;2023-07-30T15:13:05;59.40;21.00
64561;DHT22;50960;46.838;16.838;2023-07-30T15:15:32;57.60;20.50
64561;DHT22;50960;46.838;16.838;2023-07-30T15:17:58;59.70;20.40
64561;DHT22;50960;46.838;16.838;2023-07-30T15:20:24;55.70;20.10
64561;DHT22;50960;46.838;16.838;2023-07-30T15:22:52;58.80;20.60
64561;DHT22;50960;46.838;16.838;2023-07-30T15:25:18;60.50;19.60
64561;DHT22;50960;46.838;16.838;2023-07-30T15:27:44;60.20;19.40